Meteorología y climatología de Navarra
Datos de la estación - Meteo Navarra

Estación de Getadar GN

Altitud 710 m.


Datos desde el 30/06/2020 hasta el 01/07/2020 en horario solar
Los datos son PROVISIONALES

Anterior Página 1 de 1 Siguiente Descargar: Formato para Excel 2000 o superior   Formato csv   Formato para OpenOffice Calc
Fecha Temperatura Humedad relativa Radiación global Insolación Precipitación Vel. viento 10 m Vel. viento 10 m Dir. viento 10 m
ºC % W/m² s l/m² m/s km/h º
30/06/2020 0:00 13.6 88 0.0 0 0.0 3.9 14.0 349
30/06/2020 0:10 13.7 88 0.0 0 0.0 3.6 13.0 348
30/06/2020 0:20 13.6 88 0.0 0 0.0 3.3 11.9 345
30/06/2020 0:30 13.5 88 0.0 0 0.0 3.5 12.4 346
30/06/2020 0:40 13.5 88 0.0 0 0.0 3.5 12.5 349
30/06/2020 0:50 13.7 86 0.0 0 0.0 3.6 13.0 353
30/06/2020 1:00 13.8 85 0.0 0 0.0 3.0 10.8 352
30/06/2020 1:10 13.9 84 0.0 0 0.0 3.1 11.2 3
30/06/2020 1:20 13.9 84 0.0 0 0.0 2.8 10.1 359
30/06/2020 1:30 13.9 83 0.0 0 0.0 2.5 8.9 6
30/06/2020 1:40 14.0 81 0.0 0 0.0 0.9 3.1 38
30/06/2020 1:50 14.2 79 0.0 0 0.0 1.4 5.0 22
30/06/2020 2:00 14.0 82 0.0 0 0.0 3.1 11.1 16
30/06/2020 2:10 13.5 86 0.0 0 0.0 2.9 10.3 359
30/06/2020 2:20 13.4 87 0.0 0 0.0 2.7 9.6 354
30/06/2020 2:30 13.6 85 0.0 0 0.0 3.3 11.9 1
30/06/2020 2:40 13.3 87 0.0 0 0.0 3.7 13.4 348
30/06/2020 2:50 13.6 84 0.0 0 0.0 3.7 13.3 345
30/06/2020 3:00 13.6 81 0.0 0 0.0 1.8 6.5 349
30/06/2020 3:10 13.5 80 0.0 0 0.0 1.8 6.6 350
30/06/2020 3:20 13.5 79 0.0 0 0.0 2.1 7.4 339
30/06/2020 3:30 13.3 76 0.0 0 0.0 1.8 6.4 336
30/06/2020 3:40 13.2 75 0.0 0 0.0 1.5 5.3 5
30/06/2020 3:50 12.9 78 0.0 0 0.0 0.2 0.8 32
30/06/2020 4:00 12.5 79 0.0 0 0.0 0.5 1.7 13
30/06/2020 4:10 12.1 82 0.0 0 0.0 1.4 5.1 6
30/06/2020 4:20 11.9 82 0.0 0 0.0 1.4 5.1 357
30/06/2020 4:30 11.9 81 0.0 0 0.0 2.3 8.3 359
30/06/2020 4:40 12.2 77 12.6 0 0.0 2.4 8.7 349
30/06/2020 4:50 12.3 77 20.6 0 0.0 2.8 9.9 356
30/06/2020 5:00 12.7 76 26.1 0 0.0 2.7 9.6 359
30/06/2020 5:10 13.3 74 28.5 0 0.0 2.0 7.1 1
30/06/2020 5:20 13.8 74 37.5 0 0.0 1.5 5.5 353
30/06/2020 5:30 14.1 77 39.9 0 0.0 1.1 3.8 11
30/06/2020 5:40 14.4 79 41.6 0 0.0 1.1 3.9 11
30/06/2020 5:50 14.7 79 48.5 0 0.0 0.2 0.7 142
30/06/2020 6:00 15.3 75 54.2 0 0.0 0.1 0.5 168
30/06/2020 6:10 15.1 75 65.2 0 0.0 0.0 0.0 150
30/06/2020 6:20 15.1 75 74.7 0 0.0 0.4 1.4 190
30/06/2020 6:30 14.6 79 80.3 0 0.0 0.5 1.7 203
30/06/2020 6:40 14.3 79 90.1 0 0.0 0.4 1.3 189
30/06/2020 6:50 14.3 81 96.0 0 0.0 0.3 1.0 209
30/06/2020 7:00 14.4 80 109.2 0 0.0 0.0 0.0 0
30/06/2020 7:10 15.1 77 129.5 0 0.0 0.1 0.2 175
30/06/2020 7:20 15.4 80 153.9 0 0.0 0.0 0.1 166
30/06/2020 7:30 15.6 78 150.4 0 0.0 0.0 0.1 207
30/06/2020 7:40 16.0 77 178.2 0 0.0 0.0 0.0 0
30/06/2020 7:50 16.4 76 227.4 0 0.0 0.1 0.3 358
30/06/2020 8:00 16.9 74 320.0 342 0.0 0.1 0.3 171
30/06/2020 8:10 17.2 73 327.9 260 0.0 0.6 2.2 176
30/06/2020 8:20 17.4 74 390.9 600 0.0 0.7 2.4 212
30/06/2020 8:30 18.0 73 363.8 398 0.0 1.0 3.5 199
30/06/2020 8:40 18.0 75 387.1 502 0.0 1.3 4.5 204
30/06/2020 8:50 18.5 75 499.5 554 0.0 0.9 3.3 198
30/06/2020 9:00 18.9 76 501.1 600 0.0 0.8 3.0 190
30/06/2020 9:10 19.7 74 484.3 600 0.0 1.1 3.9 157
30/06/2020 9:20 20.3 73 586.1 600 0.0 1.1 3.8 148
30/06/2020 9:30 20.8 73 764.5 600 0.0 1.6 5.8 134
30/06/2020 9:40 21.1 74 796.5 600 0.0 1.4 5.0 141
30/06/2020 9:50 21.6 74 807.0 600 0.0 1.7 6.1 133
30/06/2020 10:00 21.7 72 828.0 600 0.0 1.9 7.0 136
30/06/2020 10:10 22.1 70 841.0 600 0.0 1.9 6.8 139
30/06/2020 10:20 22.6 68 856.0 600 0.0 1.8 6.6 133
30/06/2020 10:30 23.4 65 871.0 600 0.0 1.2 4.5 143
30/06/2020 10:40 23.7 64 885.0 600 0.0 1.5 5.4 167
30/06/2020 10:50 23.5 62 898.0 600 0.0 2.5 9.1 184
30/06/2020 11:00 23.5 63 909.0 600 0.0 1.4 5.1 167
30/06/2020 11:10 24.5 59 918.0 600 0.0 1.5 5.4 181
30/06/2020 11:20 24.4 58 928.0 600 0.0 1.4 5.1 176
30/06/2020 11:30 24.9 57 937.0 600 0.0 1.6 5.8 147
30/06/2020 11:40 25.0 55 942.0 600 0.0 1.6 5.8 177
30/06/2020 11:50 25.1 57 944.0 600 0.0 2.1 7.6 168
30/06/2020 12:00 25.7 57 946.0 600 0.0 2.1 7.7 168
30/06/2020 12:10 25.8 57 951.0 600 0.0 1.3 4.8 163
30/06/2020 12:20 26.2 56 947.0 600 0.0 2.4 8.6 165
30/06/2020 12:30 26.2 56 949.0 600 0.0 2.2 7.7 155
30/06/2020 12:40 26.4 56 946.0 600 0.0 1.9 6.7 172
30/06/2020 12:50 26.5 55 962.0 600 0.0 3.2 11.5 206
30/06/2020 13:00 26.5 54 940.0 600 0.0 3.1 11.3 197
30/06/2020 13:10 26.9 51 929.0 600 0.0 2.2 7.8 172
30/06/2020 13:20 27.5 49 916.0 600 0.0 0.8 3.0 159
30/06/2020 13:30 27.9 47 907.0 600 0.0 1.2 4.3 141
30/06/2020 13:40 27.6 47 898.0 600 0.0 1.5 5.5 169
30/06/2020 13:50 28.5 45 885.0 600 0.0 1.4 5.2 163
30/06/2020 14:00 28.1 44 871.0 600 0.0 1.7 6.1 160
30/06/2020 14:10 28.3 44 856.0 600 0.0 1.7 6.1 136
30/06/2020 14:20 28.3 43 839.0 600 0.0 1.5 5.2 189
30/06/2020 14:30 28.4 43 820.0 600 0.0 1.8 6.4 173
30/06/2020 14:40 28.1 43 799.1 600 0.0 2.3 8.2 174
30/06/2020 14:50 28.8 43 781.6 600 0.0 1.8 6.4 152
30/06/2020 15:00 28.8 42 761.4 600 0.0 0.7 2.5 141
30/06/2020 15:10 29.3 42 723.3 600 0.0 1.0 3.5 276
30/06/2020 15:20 29.0 42 578.5 600 0.0 2.2 7.8 208
30/06/2020 15:30 28.4 44 545.8 600 0.0 1.7 6.0 200
30/06/2020 15:40 28.7 44 508.8 600 0.0 0.7 2.4 193
30/06/2020 15:50 28.5 45 304.7 88 0.0 1.3 4.6 178
30/06/2020 16:00 28.0 47 388.0 268 0.0 0.7 2.7 186
30/06/2020 16:10 28.8 47 493.7 490 0.0 1.8 6.4 215
30/06/2020 16:20 28.1 49 283.8 94 0.0 1.4 5.0 182
30/06/2020 16:30 27.9 50 296.6 256 0.0 1.2 4.4 160
30/06/2020 16:40 27.7 52 292.7 262 0.0 2.7 9.6 185
30/06/2020 16:50 27.3 54 181.7 0 0.0 2.0 7.3 190
30/06/2020 17:00 27.0 53 138.4 0 0.0 1.6 5.8 229
30/06/2020 17:10 26.8 52 115.5 0 0.0 0.9 3.1 266
30/06/2020 17:20 26.6 53 114.5 0 0.0 0.7 2.7 261
30/06/2020 17:30 26.5 54 121.8 0 0.0 1.0 3.6 258
30/06/2020 17:40 26.3 54 112.9 0 0.0 0.7 2.4 257
30/06/2020 17:50 26.0 53 92.5 0 0.0 1.0 3.6 263
30/06/2020 18:00 25.5 53 57.4 0 0.0 1.5 5.3 282
30/06/2020 18:10 25.0 55 39.6 0 0.0 1.7 6.0 348
30/06/2020 18:20 24.4 60 41.0 0 0.0 1.7 6.2 350
30/06/2020 18:30 24.1 60 42.5 0 0.0 1.2 4.3 6
30/06/2020 18:40 24.1 60 42.8 0 0.0 1.4 5.0 347
30/06/2020 18:50 23.4 66 38.4 0 0.0 2.1 7.6 8
30/06/2020 19:00 23.2 67 32.5 0 0.0 1.6 5.8 3
30/06/2020 19:10 22.9 69 45.2 0 0.0 1.5 5.5 358
30/06/2020 19:20 23.0 68 34.1 0 0.0 1.8 6.3 328
30/06/2020 19:30 23.7 58 28.1 6 0.0 3.1 11.2 262
30/06/2020 19:40 23.9 54 16.6 0 0.0 0.9 3.2 314
30/06/2020 19:50 23.4 58 0.0 0 0.0 2.0 7.3 21
30/06/2020 20:00 22.9 61 0.0 0 0.0 2.0 7.3 5
30/06/2020 20:10 22.7 62 0.0 0 0.0 2.3 8.1 359
30/06/2020 20:20 22.6 63 0.0 0 0.0 1.9 6.8 341
30/06/2020 20:30 23.0 58 0.0 0 0.0 1.2 4.1 270
30/06/2020 20:40 23.2 55 0.0 0 0.0 0.8 2.7 167
30/06/2020 20:50 23.6 52 0.0 0 0.0 0.8 2.8 46
30/06/2020 21:00 23.1 56 0.0 0 0.0 2.0 7.3 26
30/06/2020 21:10 22.3 58 0.0 0 0.0 1.7 6.0 259
30/06/2020 21:20 23.0 52 0.0 0 0.0 3.2 11.7 256
30/06/2020 21:30 24.1 48 0.0 0 0.0 4.0 14.3 259
30/06/2020 21:40 23.6 51 0.0 0 0.0 4.6 16.6 251
30/06/2020 21:50 23.3 53 0.0 0 0.0 4.8 17.4 239
30/06/2020 22:00 23.3 53 0.0 0 0.0 1.5 5.3 217
30/06/2020 22:10 22.4 58 0.0 0 0.0 2.2 7.9 343
30/06/2020 22:20 21.5 62 0.0 0 0.0 1.6 5.9 13
30/06/2020 22:30 21.7 59 0.0 0 0.0 2.5 8.8 0
30/06/2020 22:40 21.6 60 0.0 0 0.0 1.8 6.3 359
30/06/2020 22:50 21.1 63 0.0 0 0.0 1.8 6.5 5
30/06/2020 23:00 20.6 65 0.0 0 0.0 1.3 4.5 321
30/06/2020 23:10 20.7 64 0.0 0 0.0 1.3 4.5 339
30/06/2020 23:20 20.7 63 0.0 0 0.0 0.8 2.9 111
30/06/2020 23:30 20.2 67 0.0 0 0.0 1.9 6.8 18
30/06/2020 23:40 20.2 67 0.0 0 0.0 1.8 6.6 8
30/06/2020 23:50 20.2 66 0.0 0 0.0 1.5 5.5 327
Anterior Página 1 de 1 Siguiente

NOTA: Tipo de datos según el color:
   - Valores diarios o 10 minutos correctos
   - Valores diarios calculados a partir de un número de datos 10 minutos menor que 144 y mayor que 120, o de un número de datos semihorarios menor que 48 y mayor que 40 (caso de las estaciones de INTIA y del Ministerio)
   - Valores diez minutos estimados


Contacto        Enlaces        Aviso legal